sensor_id;sensor_type;location;lat;lon;timestamp;P1;durP1;ratioP1;P2;durP2;ratioP2
17504;SDS011;8870;50.950;11.762;2023-08-21T00:00:09;8.35;;;6.20;;
17504;SDS011;8870;50.950;11.762;2023-08-21T00:05:31;7.72;;;5.85;;
17504;SDS011;8870;50.950;11.762;2023-08-21T00:11:04;7.60;;;6.80;;
17504;SDS011;8870;50.950;11.762;2023-08-21T00:16:22;9.77;;;7.38;;
17504;SDS011;8870;50.950;11.762;2023-08-21T00:21:57;9.02;;;7.72;;
17504;SDS011;8870;50.950;11.762;2023-08-21T00:27:15;9.40;;;7.22;;
17504;SDS011;8870;50.950;11.762;2023-08-21T00:32:46;6.47;;;5.85;;
17504;SDS011;8870;50.950;11.762;2023-08-21T00:38:08;7.57;;;6.88;;
17504;SDS011;8870;50.950;11.762;2023-08-21T00:43:39;7.68;;;6.88;;
17504;SDS011;8870;50.950;11.762;2023-08-21T00:48:57;8.15;;;7.07;;
17504;SDS011;8870;50.950;11.762;2023-08-21T00:54:33;7.18;;;6.50;;
17504;SDS011;8870;50.950;11.762;2023-08-21T00:59:51;6.43;;;5.70;;
17504;SDS011;8870;50.950;11.762;2023-08-21T01:05:23;6.57;;;5.15;;
17504;SDS011;8870;50.950;11.762;2023-08-21T01:10:46;7.55;;;5.93;;
17504;SDS011;8870;50.950;11.762;2023-08-21T01:16:22;8.30;;;6.30;;
17504;SDS011;8870;50.950;11.762;2023-08-21T01:21:42;10.75;;;7.05;;
17504;SDS011;8870;50.950;11.762;2023-08-21T01:27:16;11.45;;;9.07;;
17504;SDS011;8870;50.950;11.762;2023-08-21T01:32:37;11.07;;;8.85;;
17504;SDS011;8870;50.950;11.762;2023-08-21T01:38:13;11.05;;;8.82;;
17504;SDS011;8870;50.950;11.762;2023-08-21T01:43:36;9.45;;;6.65;;
17504;SDS011;8870;50.950;11.762;2023-08-21T01:49:07;9.95;;;6.30;;
17504;SDS011;8870;50.950;11.762;2023-08-21T01:54:25;7.55;;;6.38;;
17504;SDS011;8870;50.950;11.762;2023-08-21T01:59:59;6.63;;;5.93;;
17504;SDS011;8870;50.950;11.762;2023-08-21T02:05:18;6.00;;;5.40;;
17504;SDS011;8870;50.950;11.762;2023-08-21T02:10:49;6.18;;;5.55;;
17504;SDS011;8870;50.950;11.762;2023-08-21T02:16:12;8.07;;;5.60;;
17504;SDS011;8870;50.950;11.762;2023-08-21T02:21:44;6.07;;;4.90;;
17504;SDS011;8870;50.950;11.762;2023-08-21T02:27:02;4.85;;;4.32;;
17504;SDS011;8870;50.950;11.762;2023-08-21T02:32:36;5.05;;;4.63;;
17504;SDS011;8870;50.950;11.762;2023-08-21T02:37:57;4.90;;;4.43;;
17504;SDS011;8870;50.950;11.762;2023-08-21T02:43:28;5.68;;;5.07;;
17504;SDS011;8870;50.950;11.762;2023-08-21T02:48:49;6.97;;;6.28;;
17504;SDS011;8870;50.950;11.762;2023-08-21T02:54:20;7.55;;;6.80;;
17504;SDS011;8870;50.950;11.762;2023-08-21T02:59:38;8.40;;;7.60;;
17504;SDS011;8870;50.950;11.762;2023-08-21T03:05:12;11.35;;;8.15;;
17504;SDS011;8870;50.950;11.762;2023-08-21T03:10:30;11.52;;;8.50;;
17504;SDS011;8870;50.950;11.762;2023-08-21T03:16:02;10.20;;;8.73;;
17504;SDS011;8870;50.950;11.762;2023-08-21T03:21:23;9.60;;;8.60;;
17504;SDS011;8870;50.950;11.762;2023-08-21T03:26:54;215.90;;;9.60;;
17504;SDS011;8870;50.950;11.762;2023-08-21T03:32:12;115.22;;;9.35;;
17504;SDS011;8870;50.950;11.762;2023-08-21T03:37:46;15.60;;;7.13;;
17504;SDS011;8870;50.950;11.762;2023-08-21T03:43:19;582.15;;;15.30;;
17504;SDS011;8870;50.950;11.762;2023-08-21T03:48:51;497.83;;;15.85;;
17504;SDS011;8870;50.950;11.762;2023-08-21T03:54:12;192.45;;;9.35;;
17504;SDS011;8870;50.950;11.762;2023-08-21T03:59:43;196.43;;;7.10;;
17504;SDS011;8870;50.950;11.762;2023-08-21T04:05:02;281.23;;;11.45;;
17504;SDS011;8870;50.950;11.762;2023-08-21T04:10:38;136.70;;;8.45;;
17504;SDS011;8870;50.950;11.762;2023-08-21T04:15:56;512.88;;;15.15;;
17504;SDS011;8870;50.950;11.762;2023-08-21T04:21:27;743.90;;;20.15;;
17504;SDS011;8870;50.950;11.762;2023-08-21T04:26:48;921.78;;;24.20;;
17504;SDS011;8870;50.950;11.762;2023-08-21T04:32:19;221.82;;;10.35;;
17504;SDS011;8870;50.950;11.762;2023-08-21T04:37:42;255.27;;;11.02;;
17504;SDS011;8870;50.950;11.762;2023-08-21T04:43:11;174.15;;;9.00;;
17504;SDS011;8870;50.950;11.762;2023-08-21T04:48:36;85.47;;;7.55;;
17504;SDS011;8870;50.950;11.762;2023-08-21T04:53:55;43.58;;;7.45;;
17504;SDS011;8870;50.950;11.762;2023-08-21T04:59:29;51.33;;;7.40;;
17504;SDS011;8870;50.950;11.762;2023-08-21T05:05:04;80.30;;;7.82;;
17504;SDS011;8870;50.950;11.762;2023-08-21T05:10:25;70.28;;;6.90;;
17504;SDS011;8870;50.950;11.762;2023-08-21T05:15:59;70.53;;;7.63;;
17504;SDS011;8870;50.950;11.762;2023-08-21T05:21:18;108.90;;;7.60;;
17504;SDS011;8870;50.950;11.762;2023-08-21T05:26:48;237.75;;;9.57;;
17504;SDS011;8870;50.950;11.762;2023-08-21T05:32:11;136.55;;;8.70;;
17504;SDS011;8870;50.950;11.762;2023-08-21T05:37:42;51.75;;;6.35;;
17504;SDS011;8870;50.950;11.762;2023-08-21T05:43:02;56.70;;;6.90;;
17504;SDS011;8870;50.950;11.762;2023-08-21T05:48:37;18.00;;;7.00;;
17504;SDS011;8870;50.950;11.762;2023-08-21T05:53:55;63.10;;;8.40;;
17504;SDS011;8870;50.950;11.762;2023-08-21T05:59:29;307.85;;;11.88;;
17504;SDS011;8870;50.950;11.762;2023-08-21T06:05:04;11.60;;;7.47;;
17504;SDS011;8870;50.950;11.762;2023-08-21T06:10:26;81.97;;;7.10;;
17504;SDS011;8870;50.950;11.762;2023-08-21T06:15:57;69.20;;;7.35;;
17504;SDS011;8870;50.950;11.762;2023-08-21T06:21:19;90.68;;;8.52;;
17504;SDS011;8870;50.950;11.762;2023-08-21T06:26:51;150.13;;;10.05;;
17504;SDS011;8870;50.950;11.762;2023-08-21T06:32:10;184.73;;;9.93;;
17504;SDS011;8870;50.950;11.762;2023-08-21T06:37:44;8.15;;;6.50;;
17504;SDS011;8870;50.950;11.762;2023-08-21T06:43:03;6.40;;;5.80;;
17504;SDS011;8870;50.950;11.762;2023-08-21T06:48:38;7.68;;;5.65;;
17504;SDS011;8870;50.950;11.762;2023-08-21T06:53:59;6.28;;;5.68;;
17504;SDS011;8870;50.950;11.762;2023-08-21T06:59:30;7.85;;;6.20;;
17504;SDS011;8870;50.950;11.762;2023-08-21T07:05:01;7.88;;;5.47;;
17504;SDS011;8870;50.950;11.762;2023-08-21T07:10:23;6.32;;;5.05;;
17504;SDS011;8870;50.950;11.762;2023-08-21T07:15:54;7.93;;;4.63;;
17504;SDS011;8870;50.950;11.762;2023-08-21T07:21:13;5.75;;;4.30;;
17504;SDS011;8870;50.950;11.762;2023-08-21T07:26:50;5.25;;;3.65;;
17504;SDS011;8870;50.950;11.762;2023-08-21T07:32:08;4.47;;;1.90;;
17504;SDS011;8870;50.950;11.762;2023-08-21T07:37:39;3.30;;;1.88;;
17504;SDS011;8870;50.950;11.762;2023-08-21T07:43:03;4.10;;;1.40;;
17504;SDS011;8870;50.950;11.762;2023-08-21T07:48:35;2.35;;;1.42;;
17504;SDS011;8870;50.950;11.762;2023-08-21T07:53:53;2.80;;;1.42;;
17504;SDS011;8870;50.950;11.762;2023-08-21T07:59:27;4.15;;;1.52;;
17504;SDS011;8870;50.950;11.762;2023-08-21T08:04:59;5.40;;;1.90;;
17504;SDS011;8870;50.950;11.762;2023-08-21T08:10:17;4.20;;;1.50;;
17504;SDS011;8870;50.950;11.762;2023-08-21T08:15:51;4.93;;;1.50;;
17504;SDS011;8870;50.950;11.762;2023-08-21T08:21:10;5.18;;;1.52;;
17504;SDS011;8870;50.950;11.762;2023-08-21T08:26:40;2.67;;;1.70;;
17504;SDS011;8870;50.950;11.762;2023-08-21T08:32:01;5.38;;;1.77;;
17504;SDS011;8870;50.950;11.762;2023-08-21T08:37:32;4.60;;;1.55;;
17504;SDS011;8870;50.950;11.762;2023-08-21T08:42:51;3.47;;;1.25;;
17504;SDS011;8870;50.950;11.762;2023-08-21T08:48:25;2.85;;;1.23;;
17504;SDS011;8870;50.950;11.762;2023-08-21T08:53:44;10.90;;;1.73;;
17504;SDS011;8870;50.950;11.762;2023-08-21T08:59:14;4.30;;;1.40;;
17504;SDS011;8870;50.950;11.762;2023-08-21T09:10:08;4.03;;;1.40;;
17504;SDS011;8870;50.950;11.762;2023-08-21T09:21:05;7.45;;;1.48;;
17504;SDS011;8870;50.950;11.762;2023-08-21T09:26:37;3.90;;;1.35;;
17504;SDS011;8870;50.950;11.762;2023-08-21T09:31:57;4.22;;;1.38;;
17504;SDS011;8870;50.950;11.762;2023-08-21T09:37:30;4.60;;;1.42;;
17504;SDS011;8870;50.950;11.762;2023-08-21T09:42:51;2.85;;;1.52;;
17504;SDS011;8870;50.950;11.762;2023-08-21T09:48:24;3.45;;;1.55;;
17504;SDS011;8870;50.950;11.762;2023-08-21T09:53:46;5.10;;;1.48;;
17504;SDS011;8870;50.950;11.762;2023-08-21T09:59:18;3.97;;;1.70;;
17504;SDS011;8870;50.950;11.762;2023-08-21T10:04:50;6.47;;;1.65;;
17504;SDS011;8870;50.950;11.762;2023-08-21T10:10:13;5.00;;;1.65;;
17504;SDS011;8870;50.950;11.762;2023-08-21T10:15:44;2.58;;;1.50;;
17504;SDS011;8870;50.950;11.762;2023-08-21T10:21:10;2.28;;;1.50;;
17504;SDS011;8870;50.950;11.762;2023-08-21T10:26:48;3.63;;;1.73;;
17504;SDS011;8870;50.950;11.762;2023-08-21T10:32:08;3.10;;;1.73;;
17504;SDS011;8870;50.950;11.762;2023-08-21T10:37:45;5.40;;;1.65;;
17504;SDS011;8870;50.950;11.762;2023-08-21T10:43:42;5.35;;;1.70;;
17504;SDS011;8870;50.950;11.762;2023-08-21T10:49:14;4.68;;;1.88;;
17504;SDS011;8870;50.950;11.762;2023-08-21T10:54:42;4.45;;;1.77;;
17504;SDS011;8870;50.950;11.762;2023-08-21T11:00:17;4.00;;;1.55;;
17504;SDS011;8870;50.950;11.762;2023-08-21T11:05:36;2.88;;;1.58;;
17504;SDS011;8870;50.950;11.762;2023-08-21T11:11:06;2.63;;;1.63;;
17504;SDS011;8870;50.950;11.762;2023-08-21T11:16:30;3.63;;;1.70;;
17504;SDS011;8870;50.950;11.762;2023-08-21T11:22:02;4.70;;;1.48;;
17504;SDS011;8870;50.950;11.762;2023-08-21T11:27:21;2.70;;;1.60;;
17504;SDS011;8870;50.950;11.762;2023-08-21T11:33:06;2.63;;;1.42;;
17504;SDS011;8870;50.950;11.762;2023-08-21T11:38:26;5.18;;;1.40;;
17504;SDS011;8870;50.950;11.762;2023-08-21T11:44:01;3.15;;;1.40;;
17504;SDS011;8870;50.950;11.762;2023-08-21T11:49:23;2.03;;;1.40;;
17504;SDS011;8870;50.950;11.762;2023-08-21T11:54:54;6.50;;;1.60;;
17504;SDS011;8870;50.950;11.762;2023-08-21T12:00:13;7.38;;;1.70;;
17504;SDS011;8870;50.950;11.762;2023-08-21T12:05:47;4.88;;;1.42;;
17504;SDS011;8870;50.950;11.762;2023-08-21T12:11:06;4.05;;;1.52;;
17504;SDS011;8870;50.950;11.762;2023-08-21T12:16:38;5.20;;;1.42;;
17504;SDS011;8870;50.950;11.762;2023-08-21T12:21:58;3.85;;;1.60;;
17504;SDS011;8870;50.950;11.762;2023-08-21T12:27:31;8.25;;;1.65;;
17504;SDS011;8870;50.950;11.762;2023-08-21T12:32:49;2.67;;;1.40;;
17504;SDS011;8870;50.950;11.762;2023-08-21T12:38:38;5.30;;;1.50;;
17504;SDS011;8870;50.950;11.762;2023-08-21T12:43:57;6.15;;;1.42;;
17504;SDS011;8870;50.950;11.762;2023-08-21T12:49:30;6.03;;;1.65;;
17504;SDS011;8870;50.950;11.762;2023-08-21T12:54:50;4.57;;;1.40;;
17504;SDS011;8870;50.950;11.762;2023-08-21T13:00:25;6.30;;;1.30;;
17504;SDS011;8870;50.950;11.762;2023-08-21T13:05:57;6.85;;;1.40;;
17504;SDS011;8870;50.950;11.762;2023-08-21T13:11:17;4.50;;;1.20;;
17504;SDS011;8870;50.950;11.762;2023-08-21T13:16:50;4.90;;;1.20;;
17504;SDS011;8870;50.950;11.762;2023-08-21T13:22:08;4.07;;;1.20;;
17504;SDS011;8870;50.950;11.762;2023-08-21T13:27:41;4.63;;;1.40;;
17504;SDS011;8870;50.950;11.762;2023-08-21T13:33:00;3.05;;;1.33;;
17504;SDS011;8870;50.950;11.762;2023-08-21T13:38:31;5.07;;;1.13;;
17504;SDS011;8870;50.950;11.762;2023-08-21T13:43:51;5.80;;;1.25;;
17504;SDS011;8870;50.950;11.762;2023-08-21T13:49:24;3.15;;;1.23;;
17504;SDS011;8870;50.950;11.762;2023-08-21T13:54:42;3.80;;;1.05;;
17504;SDS011;8870;50.950;11.762;2023-08-21T14:00:16;6.90;;;1.13;;
17504;SDS011;8870;50.950;11.762;2023-08-21T14:05:48;3.08;;;1.00;;
17504;SDS011;8870;50.950;11.762;2023-08-21T14:11:06;3.70;;;0.93;;
17504;SDS011;8870;50.950;11.762;2023-08-21T14:16:39;1.73;;;0.90;;
17504;SDS011;8870;50.950;11.762;2023-08-21T14:22:01;3.40;;;1.00;;
17504;SDS011;8870;50.950;11.762;2023-08-21T14:27:45;2.10;;;1.00;;
17504;SDS011;8870;50.950;11.762;2023-08-21T14:33:06;3.40;;;1.00;;
17504;SDS011;8870;50.950;11.762;2023-08-21T14:38:37;5.82;;;1.00;;
17504;SDS011;8870;50.950;11.762;2023-08-21T14:43:55;2.35;;;1.10;;
17504;SDS011;8870;50.950;11.762;2023-08-21T14:49:29;2.75;;;1.00;;
17504;SDS011;8870;50.950;11.762;2023-08-21T14:54:48;3.50;;;1.00;;
17504;SDS011;8870;50.950;11.762;2023-08-21T15:00:22;3.47;;;1.00;;
17504;SDS011;8870;50.950;11.762;2023-08-21T15:05:55;3.40;;;0.90;;
17504;SDS011;8870;50.950;11.762;2023-08-21T15:11:27;1.75;;;0.90;;
17504;SDS011;8870;50.950;11.762;2023-08-21T15:16:58;1.60;;;0.85;;
17504;SDS011;8870;50.950;11.762;2023-08-21T15:22:35;2.60;;;1.17;;
17504;SDS011;8870;50.950;11.762;2023-08-21T15:27:54;4.47;;;0.90;;
17504;SDS011;8870;50.950;11.762;2023-08-21T15:33:26;1.15;;;0.90;;
17504;SDS011;8870;50.950;11.762;2023-08-21T15:38:46;1.95;;;0.88;;
17504;SDS011;8870;50.950;11.762;2023-08-21T15:44:18;3.03;;;1.00;;
17504;SDS011;8870;50.950;11.762;2023-08-21T15:49:36;4.60;;;1.20;;
17504;SDS011;8870;50.950;11.762;2023-08-21T15:55:11;4.43;;;1.17;;
17504;SDS011;8870;50.950;11.762;2023-08-21T16:00:36;2.83;;;1.00;;
17504;SDS011;8870;50.950;11.762;2023-08-21T16:06:08;4.88;;;1.20;;
17504;SDS011;8870;50.950;11.762;2023-08-21T16:11:28;3.22;;;1.05;;
17504;SDS011;8870;50.950;11.762;2023-08-21T16:17:00;2.70;;;1.00;;
17504;SDS011;8870;50.950;11.762;2023-08-21T16:22:18;2.05;;;1.00;;
17504;SDS011;8870;50.950;11.762;2023-08-21T16:27:52;2.35;;;1.00;;
17504;SDS011;8870;50.950;11.762;2023-08-21T16:33:11;2.22;;;1.00;;
17504;SDS011;8870;50.950;11.762;2023-08-21T16:38:43;4.68;;;1.00;;
17504;SDS011;8870;50.950;11.762;2023-08-21T16:44:05;2.17;;;0.82;;
17504;SDS011;8870;50.950;11.762;2023-08-21T16:49:39;2.08;;;0.90;;
17504;SDS011;8870;50.950;11.762;2023-08-21T16:54:57;1.70;;;0.98;;
17504;SDS011;8870;50.950;11.762;2023-08-21T17:00:31;6.53;;;1.10;;
17504;SDS011;8870;50.950;11.762;2023-08-21T17:06:03;4.40;;;1.00;;
17504;SDS011;8870;50.950;11.762;2023-08-21T17:11:22;3.25;;;0.95;;
17504;SDS011;8870;50.950;11.762;2023-08-21T17:16:56;3.78;;;0.85;;
17504;SDS011;8870;50.950;11.762;2023-08-21T17:22:14;2.97;;;0.90;;
17504;SDS011;8870;50.950;11.762;2023-08-21T17:27:47;1.75;;;0.90;;
17504;SDS011;8870;50.950;11.762;2023-08-21T17:33:09;5.05;;;1.00;;
17504;SDS011;8870;50.950;11.762;2023-08-21T17:38:41;1.63;;;0.95;;
17504;SDS011;8870;50.950;11.762;2023-08-21T17:43:59;1.90;;;0.90;;
17504;SDS011;8870;50.950;11.762;2023-08-21T17:49:32;1.77;;;0.90;;
17504;SDS011;8870;50.950;11.762;2023-08-21T17:54:51;3.45;;;0.90;;
17504;SDS011;8870;50.950;11.762;2023-08-21T18:00:23;2.97;;;0.90;;
17504;SDS011;8870;50.950;11.762;2023-08-21T18:05:56;3.30;;;0.93;;
17504;SDS011;8870;50.950;11.762;2023-08-21T18:11:15;2.67;;;0.98;;
17504;SDS011;8870;50.950;11.762;2023-08-21T18:16:47;2.45;;;1.00;;
17504;SDS011;8870;50.950;11.762;2023-08-21T18:22:09;3.55;;;1.00;;
17504;SDS011;8870;50.950;11.762;2023-08-21T18:27:43;6.27;;;1.00;;
17504;SDS011;8870;50.950;11.762;2023-08-21T18:33:06;6.17;;;1.03;;
17504;SDS011;8870;50.950;11.762;2023-08-21T18:38:41;1.73;;;0.93;;
17504;SDS011;8870;50.950;11.762;2023-08-21T18:44:00;5.28;;;1.20;;
17504;SDS011;8870;50.950;11.762;2023-08-21T18:49:32;5.53;;;1.00;;
17504;SDS011;8870;50.950;11.762;2023-08-21T18:54:53;2.47;;;1.00;;
17504;SDS011;8870;50.950;11.762;2023-08-21T19:00:24;4.32;;;1.02;;
17504;SDS011;8870;50.950;11.762;2023-08-21T19:05:57;3.78;;;1.10;;
17504;SDS011;8870;50.950;11.762;2023-08-21T19:11:19;5.38;;;1.35;;
17504;SDS011;8870;50.950;11.762;2023-08-21T19:16:50;4.43;;;1.33;;
17504;SDS011;8870;50.950;11.762;2023-08-21T19:22:08;2.13;;;1.23;;
17504;SDS011;8870;50.950;11.762;2023-08-21T19:27:42;2.20;;;1.20;;
17504;SDS011;8870;50.950;11.762;2023-08-21T19:33:01;3.42;;;1.15;;
17504;SDS011;8870;50.950;11.762;2023-08-21T19:38:33;3.42;;;1.23;;
17504;SDS011;8870;50.950;11.762;2023-08-21T19:43:54;6.38;;;1.13;;
17504;SDS011;8870;50.950;11.762;2023-08-21T19:49:27;2.17;;;1.00;;
17504;SDS011;8870;50.950;11.762;2023-08-21T19:54:46;3.40;;;1.20;;
17504;SDS011;8870;50.950;11.762;2023-08-21T20:00:20;2.72;;;1.30;;
17504;SDS011;8870;50.950;11.762;2023-08-21T20:05:58;2.28;;;1.15;;
17504;SDS011;8870;50.950;11.762;2023-08-21T20:11:18;5.15;;;1.10;;
17504;SDS011;8870;50.950;11.762;2023-08-21T20:16:52;2.60;;;1.30;;
17504;SDS011;8870;50.950;11.762;2023-08-21T20:22:10;5.55;;;1.20;;
17504;SDS011;8870;50.950;11.762;2023-08-21T20:27:42;5.63;;;1.30;;
17504;SDS011;8870;50.950;11.762;2023-08-21T20:33:03;3.42;;;1.05;;
17504;SDS011;8870;50.950;11.762;2023-08-21T20:38:35;4.47;;;1.20;;
17504;SDS011;8870;50.950;11.762;2023-08-21T20:43:53;3.42;;;1.02;;
17504;SDS011;8870;50.950;11.762;2023-08-21T20:49:28;5.40;;;1.10;;
17504;SDS011;8870;50.950;11.762;2023-08-21T20:54:49;3.25;;;1.15;;
17504;SDS011;8870;50.950;11.762;2023-08-21T21:00:20;3.20;;;1.40;;
17504;SDS011;8870;50.950;11.762;2023-08-21T21:05:56;5.40;;;1.30;;
17504;SDS011;8870;50.950;11.762;2023-08-21T21:11:15;2.90;;;1.38;;
17504;SDS011;8870;50.950;11.762;2023-08-21T21:16:47;2.28;;;1.27;;
17504;SDS011;8870;50.950;11.762;2023-08-21T21:22:08;4.88;;;1.20;;
17504;SDS011;8870;50.950;11.762;2023-08-21T21:27:40;2.53;;;1.08;;
17504;SDS011;8870;50.950;11.762;2023-08-21T21:32:58;3.22;;;1.15;;
17504;SDS011;8870;50.950;11.762;2023-08-21T21:38:32;7.80;;;1.30;;
17504;SDS011;8870;50.950;11.762;2023-08-21T21:43:50;4.63;;;1.15;;
17504;SDS011;8870;50.950;11.762;2023-08-21T21:49:21;2.75;;;1.20;;
17504;SDS011;8870;50.950;11.762;2023-08-21T21:54:42;2.15;;;1.23;;
17504;SDS011;8870;50.950;11.762;2023-08-21T22:00:13;2.40;;;1.20;;
17504;SDS011;8870;50.950;11.762;2023-08-21T22:05:45;4.00;;;1.17;;
17504;SDS011;8870;50.950;11.762;2023-08-21T22:11:06;2.92;;;1.08;;
17504;SDS011;8870;50.950;11.762;2023-08-21T22:16:39;3.13;;;1.13;;
17504;SDS011;8870;50.950;11.762;2023-08-21T22:21:57;2.47;;;1.20;;
17504;SDS011;8870;50.950;11.762;2023-08-21T22:27:31;3.63;;;1.30;;
17504;SDS011;8870;50.950;11.762;2023-08-21T22:32:49;4.30;;;1.40;;
17504;SDS011;8870;50.950;11.762;2023-08-21T22:38:21;4.10;;;1.20;;
17504;SDS011;8870;50.950;11.762;2023-08-21T22:43:42;5.28;;;1.40;;
17504;SDS011;8870;50.950;11.762;2023-08-21T22:49:13;2.03;;;1.00;;
17504;SDS011;8870;50.950;11.762;2023-08-21T22:54:31;2.97;;;1.20;;
17504;SDS011;8870;50.950;11.762;2023-08-21T23:00:05;4.78;;;1.30;;
17504;SDS011;8870;50.950;11.762;2023-08-21T23:05:37;3.55;;;1.25;;
17504;SDS011;8870;50.950;11.762;2023-08-21T23:10:57;3.90;;;1.10;;
17504;SDS011;8870;50.950;11.762;2023-08-21T23:16:31;3.42;;;1.40;;
17504;SDS011;8870;50.950;11.762;2023-08-21T23:21:50;3.53;;;1.20;;
17504;SDS011;8870;50.950;11.762;2023-08-21T23:27:21;2.20;;;1.20;;
17504;SDS011;8870;50.950;11.762;2023-08-21T23:32:42;3.28;;;1.38;;
17504;SDS011;8870;50.950;11.762;2023-08-21T23:38:14;3.75;;;1.40;;
17504;SDS011;8870;50.950;11.762;2023-08-21T23:43:39;1.73;;;1.00;;
17504;SDS011;8870;50.950;11.762;2023-08-21T23:49:14;4.93;;;1.10;;
17504;SDS011;8870;50.950;11.762;2023-08-21T23:54:45;1.98;;;1.05;;
